2016 Cux-Wetter.de -Die Nutzung der Wetterdaten nur mit ausdrcklicher Genehmigung
Wetterdaten: Woche 09.01.17 - 15.01.17 (KW2)
Datum Zeit Temp. A. Feuchte A. Luftdruck Regen Wind Richtung Sonnenschein Solar Taupunkt Windchill Windben
09.01.2017 00:00 1,7 C 96 % 1028,3 hPa 0,0 l/m 5,4 km/h (2 Bft) SW 0,00 h 0 W/m 1,1 C 1,6 C 8,8 km/h (2 Bft)
09.01.2017 01:00 1,7 C 96 % 1027,9 hPa 0,2 l/m 7,7 km/h (2 Bft) SW 0,00 h 0 W/m 1,2 C 0,5 C 12,1 km/h (2 Bft)
09.01.2017 02:00 1,9 C 95 % 1027,4 hPa 0,0 l/m 8,2 km/h (2 Bft) SW 0,00 h 0 W/m 1,1 C 0,1 C 13,1 km/h (3 Bft)
09.01.2017 03:00 1,9 C 95 % 1026,8 hPa 0,0 l/m 8,6 km/h (2 Bft) SW 0,00 h 0 W/m 1,2 C -0,2 C 13,5 km/h (3 Bft)
09.01.2017 04:00 1,8 C 95 % 1026,1 hPa 0,0 l/m 9,3 km/h (2 Bft) S-SW 0,00 h 0 W/m 1,1 C -0,9 C 14,6 km/h (3 Bft)
09.01.2017 05:00 1,8 C 95 % 1025,5 hPa 0,0 l/m 7,8 km/h (2 Bft) SW 0,00 h 0 W/m 1,2 C 0,5 C 12,7 km/h (3 Bft)
09.01.2017 06:00 1,9 C 96 % 1025,0 hPa 0,0 l/m 6,4 km/h (2 Bft) SW 0,00 h 0 W/m 1,4 C 1,7 C 11,0 km/h (2 Bft)
09.01.2017 07:00 2,1 C 96 % 1024,6 hPa 0,2 l/m 7,1 km/h (2 Bft) S 0,00 h 0 W/m 1,5 C 1,2 C 12,4 km/h (2 Bft)
09.01.2017 08:00 2,0 C 97 % 1024,0 hPa 0,2 l/m 6,6 km/h (2 Bft) S 0,00 h 0 W/m 1,5 C 1,7 C 12,1 km/h (2 Bft)
09.01.2017 09:00 2,1 C 97 % 1023,6 hPa 0,0 l/m 7,4 km/h (2 Bft) S 0,00 h 15 W/m 1,7 C 1,0 C 13,5 km/h (3 Bft)
09.01.2017 10:00 2,3 C 97 % 1023,3 hPa 0,0 l/m 7,5 km/h (2 Bft) S 0,00 h 42 W/m 1,9 C 1,3 C 13,5 km/h (3 Bft)
09.01.2017 11:00 2,7 C 96 % 1022,6 hPa 0,0 l/m 8,4 km/h (2 Bft) S 0,00 h 53 W/m 2,2 C 0,9 C 14,8 km/h (3 Bft)
09.01.2017 12:00 3,1 C 94 % 1021,4 hPa 0,0 l/m 6,1 km/h (2 Bft) S-SO 0,00 h 66 W/m 2,3 C 2,6 C 11,0 km/h (2 Bft)
09.01.2017 13:00 3,2 C 93 % 1020,0 hPa 0,0 l/m 6,6 km/h (2 Bft) S-SO 0,00 h 57 W/m 2,1 C 2,7 C 12,9 km/h (3 Bft)
09.01.2017 14:00 2,9 C 93 % 1018,7 hPa 0,0 l/m 7,7 km/h (2 Bft) SO 0,00 h 40 W/m 1,9 C 1,7 C 14,6 km/h (3 Bft)
09.01.2017 15:00 2,8 C 92 % 1017,3 hPa 0,0 l/m 10,3 km/h (2 Bft) S-SO 0,00 h 19 W/m 1,7 C -0,6 C 17,9 km/h (3 Bft)
09.01.2017 16:00 2,6 C 93 % 1016,5 hPa 0,2 l/m 10,1 km/h (2 Bft) S-SO 0,00 h 7 W/m 1,5 C -0,6 C 18,6 km/h (3 Bft)
09.01.2017 17:00 2,3 C 93 % 1015,4 hPa 0,0 l/m 9,8 km/h (2 Bft) S-SO 0,00 h 0 W/m 1,4 C -0,7 C 17,2 km/h (3 Bft)
09.01.2017 18:00 2,6 C 94 % 1014,4 hPa 0,0 l/m 9,6 km/h (2 Bft) S-SO 0,00 h 0 W/m 1,7 C -0,3 C 17,4 km/h (3 Bft)
09.01.2017 19:00 2,9 C 94 % 1013,6 hPa 0,0 l/m 9,9 km/h (2 Bft) SO 0,00 h 0 W/m 2,1 C -0,1 C 17,5 km/h (3 Bft)
09.01.2017 20:00 2,9 C 94 % 1012,4 hPa 0,0 l/m 11,0 km/h (2 Bft) S-SO 0,00 h 0 W/m 2,1 C -0,9 C 20,7 km/h (4 Bft)
09.01.2017 21:00 2,9 C 94 % 1011,3 hPa 0,0 l/m 11,0 km/h (2 Bft) S-SO 0,00 h 0 W/m 2,1 C -0,9 C 19,6 km/h (3 Bft)
09.01.2017 22:00 2,9 C 95 % 1010,2 hPa 0,0 l/m 10,7 km/h (2 Bft) S-SO 0,00 h 0 W/m 2,2 C -0,7 C 19,5 km/h (3 Bft)
09.01.2017 23:00 3,0 C 95 % 1009,3 hPa 0,0 l/m 10,2 km/h (2 Bft) SO 0,00 h 0 W/m 2,2 C -0,3 C 17,8 km/h (3 Bft)
10.01.2017 00:00 2,9 C 95 % 1008,4 hPa 0,0 l/m 10,7 km/h (2 Bft) S-SO 0,00 h 0 W/m 2,2 C -0,7 C 19,1 km/h (3 Bft)
10.01.2017 01:00 3,2 C 96 % 1007,4 hPa 0,0 l/m 11,9 km/h (2 Bft) S 0,00 h 0 W/m 2,6 C -1,2 C 21,1 km/h (4 Bft)
10.01.2017 02:00 3,5 C 95 % 1006,5 hPa 0,0 l/m 12,0 km/h (2 Bft) S-SO 0,00 h 0 W/m 2,9 C -0,9 C 22,7 km/h (4 Bft)
10.01.2017 03:00 3,5 C 95 % 1005,9 hPa 0,2 l/m 10,9 km/h (2 Bft) S-SO 0,00 h 0 W/m 2,9 C -0,2 C 20,7 km/h (4 Bft)
10.01.2017 04:00 3,3 C 96 % 1005,2 hPa 0,4 l/m 10,9 km/h (2 Bft) S-SO 0,00 h 0 W/m 2,7 C -0,4 C 19,4 km/h (3 Bft)
10.01.2017 05:00 3,2 C 96 % 1004,5 hPa 0,4 l/m 11,5 km/h (2 Bft) S-SO 0,00 h 0 W/m 2,7 C -0,9 C 21,4 km/h (4 Bft)
10.01.2017 06:00 3,2 C 97 % 1004,3 hPa 0,2 l/m 11,0 km/h (2 Bft) S-SO 0,00 h 0 W/m 2,7 C -0,6 C 20,2 km/h (4 Bft)
10.01.2017 07:00 3,2 C 97 % 1004,4 hPa 0,2 l/m 10,9 km/h (2 Bft) S-SO 0,00 h 0 W/m 2,8 C -0,6 C 20,3 km/h (4 Bft)
10.01.2017 08:00 3,2 C 97 % 1004,9 hPa 0,2 l/m 10,6 km/h (2 Bft) S 0,00 h 0 W/m 2,8 C -0,4 C 19,1 km/h (3 Bft)
10.01.2017 09:00 3,2 C 97 % 1005,6 hPa 0,2 l/m 10,0 km/h (2 Bft) S 0,00 h 11 W/m 2,7 C 0,1 C 17,6 km/h (3 Bft)
10.01.2017 10:00 3,0 C 97 % 1005,9 hPa 0,0 l/m 10,8 km/h (2 Bft) S 0,00 h 37 W/m 2,6 C -0,7 C 17,7 km/h (3 Bft)
10.01.2017 11:00 3,1 C 97 % 1006,1 hPa 0,2 l/m 9,8 km/h (2 Bft) S-SO 0,00 h 62 W/m 2,7 C 0,2 C 17,7 km/h (3 Bft)
10.01.2017 12:00 3,2 C 97 % 1006,2 hPa 0,0 l/m 9,5 km/h (2 Bft) S-SO 0,00 h 41 W/m 2,8 C 0,5 C 16,8 km/h (3 Bft)
10.01.2017 13:00 3,1 C 97 % 1006,2 hPa 0,0 l/m 9,0 km/h (2 Bft) S 0,00 h 42 W/m 2,7 C 0,8 C 16,8 km/h (3 Bft)
10.01.2017 14:00 3,1 C 97 % 1006,7 hPa 0,0 l/m 8,5 km/h (2 Bft) S-SO 0,00 h 33 W/m 2,7 C 1,2 C 15,5 km/h (3 Bft)
10.01.2017 15:00 2,9 C 97 % 1007,1 hPa 0,0 l/m 8,1 km/h (2 Bft) S 0,00 h 17 W/m 2,5 C 1,3 C 14,5 km/h (3 Bft)
10.01.2017 16:00 2,9 C 97 % 1007,7 hPa 0,0 l/m 7,0 km/h (2 Bft) S 0,00 h 7 W/m 2,5 C 2,2 C 12,7 km/h (3 Bft)
10.01.2017 17:00 3,1 C 97 % 1008,1 hPa 0,0 l/m 7,2 km/h (2 Bft) S 0,00 h 0 W/m 2,6 C 2,3 C 12,8 km/h (3 Bft)
10.01.2017 18:00 3,0 C 97 % 1008,4 hPa 0,0 l/m 5,9 km/h (2 Bft) S-SO 0,00 h 0 W/m 2,5 C 2,7 C 10,6 km/h (2 Bft)
10.01.2017 19:00 2,7 C 97 % 1008,6 hPa 0,0 l/m 7,4 km/h (2 Bft) S 0,00 h 0 W/m 2,2 C 1,7 C 13,0 km/h (3 Bft)
10.01.2017 20:00 3,0 C 97 % 1008,6 hPa 0,0 l/m 8,3 km/h (2 Bft) S 0,00 h 0 W/m 2,6 C 1,4 C 14,7 km/h (3 Bft)
10.01.2017 21:00 3,4 C 97 % 1008,6 hPa 0,0 l/m 9,2 km/h (2 Bft) S-SW 0,00 h 0 W/m 3,1 C 1,0 C 16,2 km/h (3 Bft)
10.01.2017 22:00 3,7 C 97 % 1008,9 hPa 0,0 l/m 9,2 km/h (2 Bft) S 0,00 h 0 W/m 3,2 C 1,2 C 18,4 km/h (3 Bft)
10.01.2017 23:00 3,8 C 97 % 1008,4 hPa 0,0 l/m 9,1 km/h (2 Bft) S-SW 0,00 h 0 W/m 3,3 C 1,4 C 16,7 km/h (3 Bft)
11.01.2017 00:00 3,8 C 97 % 1007,9 hPa 0,0 l/m 10,1 km/h (2 Bft) S 0,00 h 0 W/m 3,4 C 0,7 C 17,4 km/h (3 Bft)
11.01.2017 01:00 3,9 C 97 % 1007,5 hPa 0,0 l/m 10,8 km/h (2 Bft) S 0,00 h 0 W/m 3,5 C 0,3 C 19,1 km/h (3 Bft)
11.01.2017 02:00 4,0 C 97 % 1006,6 hPa 0,0 l/m 12,4 km/h (2 Bft) S 0,00 h 0 W/m 3,6 C -0,6 C 20,8 km/h (4 Bft)
11.01.2017 03:00 4,0 C 97 % 1005,3 hPa 0,0 l/m 13,7 km/h (3 Bft) S 0,00 h 0 W/m 3,6 C -1,4 C 24,0 km/h (4 Bft)
11.01.2017 04:00 4,2 C 97 % 1004,2 hPa 0,0 l/m 15,2 km/h (3 Bft) S-SW 0,00 h 0 W/m 3,8 C -1,9 C 26,9 km/h (4 Bft)
11.01.2017 05:00 4,3 C 97 % 1002,6 hPa 0,0 l/m 16,0 km/h (3 Bft) S 0,00 h 0 W/m 3,9 C -2,2 C 28,4 km/h (5 Bft)
11.01.2017 06:00 4,6 C 97 % 1001,0 hPa 0,0 l/m 17,1 km/h (3 Bft) S 0,00 h 0 W/m 4,2 C -2,4 C 29,3 km/h (5 Bft)
11.01.2017 07:00 4,9 C 97 % 999,3 hPa 0,0 l/m 19,7 km/h (3 Bft) SW 0,00 h 0 W/m 4,5 C -3,0 C 34,4 km/h (5 Bft)
11.01.2017 08:00 5,2 C 96 % 997,1 hPa 0,4 l/m 23,4 km/h (4 Bft) S-SW 0,00 h 0 W/m 4,6 C -4,1 C 40,0 km/h (6 Bft)
11.01.2017 09:00 5,3 C 96 % 995,1 hPa 0,8 l/m 23,5 km/h (4 Bft) S 0,00 h 6 W/m 4,7 C -4,0 C 39,4 km/h (6 Bft)
11.01.2017 10:00 5,4 C 97 % 993,7 hPa 1,4 l/m 25,9 km/h (4 Bft) SW 0,00 h 9 W/m 5,0 C -4,7 C 42,1 km/h (6 Bft)
11.01.2017 11:00 5,8 C 97 % 993,1 hPa 1,4 l/m 24,2 km/h (4 Bft) SW 0,00 h 21 W/m 5,4 C -3,4 C 39,9 km/h (6 Bft)
11.01.2017 12:00 5,9 C 96 % 992,4 hPa 1,2 l/m 16,2 km/h (3 Bft) SW 0,00 h 53 W/m 5,2 C -0,3 C 27,8 km/h (5 Bft)
11.01.2017 13:00 6,4 C 92 % 992,4 hPa 0,6 l/m 18,5 km/h (3 Bft) W-SW 0,35 h 93 W/m 5,1 C -0,6 C 31,6 km/h (5 Bft)
11.01.2017 14:00 6,3 C 91 % 992,4 hPa 0,8 l/m 18,4 km/h (3 Bft) W-SW 0,50 h 94 W/m 4,9 C -0,8 C 30,5 km/h (5 Bft)
11.01.2017 15:00 6,1 C 90 % 992,7 hPa 0,4 l/m 18,6 km/h (3 Bft) W-SW 0,05 h 27 W/m 4,5 C -1,1 C 31,1 km/h (5 Bft)
11.01.2017 16:00 5,7 C 88 % 993,2 hPa 0,2 l/m 20,2 km/h (4 Bft) W-SW 0,00 h 6 W/m 3,8 C -2,3 C 32,9 km/h (5 Bft)
11.01.2017 17:00 5,6 C 88 % 993,6 hPa 0,2 l/m 17,9 km/h (3 Bft) W 0,00 h 0 W/m 3,7 C -1,5 C 32,0 km/h (5 Bft)
11.01.2017 18:00 4,8 C 90 % 993,8 hPa 0,2 l/m 19,5 km/h (3 Bft) W 0,00 h 0 W/m 3,3 C -3,2 C 32,8 km/h (5 Bft)
11.01.2017 19:00 5,1 C 90 % 994,6 hPa 0,0 l/m 19,1 km/h (3 Bft) W 0,00 h 0 W/m 3,6 C -2,6 C 36,1 km/h (5 Bft)
11.01.2017 20:00 5,0 C 89 % 995,3 hPa 0,2 l/m 21,3 km/h (4 Bft) W-NW 0,00 h 0 W/m 3,3 C -3,5 C 39,7 km/h (6 Bft)
11.01.2017 21:00 4,9 C 89 % 995,8 hPa 0,2 l/m 20,1 km/h (4 Bft) W 0,00 h 0 W/m 3,3 C -3,2 C 36,5 km/h (5 Bft)
11.01.2017 22:00 5,2 C 87 % 996,4 hPa 0,0 l/m 18,6 km/h (3 Bft) W-SW 0,00 h 0 W/m 3,2 C -2,3 C 36,6 km/h (5 Bft)
11.01.2017 23:00 5,7 C 85 % 997,0 hPa 0,2 l/m 21,5 km/h (4 Bft) W 0,00 h 0 W/m 3,3 C -2,8 C 39,3 km/h (6 Bft)
12.01.2017 00:00 5,5 C 83 % 997,9 hPa 0,0 l/m 22,8 km/h (4 Bft) W 0,00 h 0 W/m 2,8 C -3,5 C 39,0 km/h (6 Bft)
12.01.2017 01:00 5,0 C 82 % 998,4 hPa 0,2 l/m 20,5 km/h (4 Bft) W 0,00 h 0 W/m 2,1 C -3,1 C 38,3 km/h (6 Bft)
12.01.2017 02:00 4,5 C 86 % 998,7 hPa 0,0 l/m 22,7 km/h (4 Bft) W 0,00 h 0 W/m 2,3 C -4,8 C 39,2 km/h (6 Bft)
12.01.2017 03:00 4,2 C 87 % 999,1 hPa 0,0 l/m 19,8 km/h (3 Bft) W 0,00 h 0 W/m 2,3 C -3,9 C 35,7 km/h (5 Bft)
12.01.2017 04:00 4,3 C 88 % 999,1 hPa 0,0 l/m 20,2 km/h (4 Bft) W-SW 0,00 h 0 W/m 2,6 C -4,0 C 35,2 km/h (5 Bft)
12.01.2017 05:00 4,6 C 88 % 999,1 hPa 0,2 l/m 20,2 km/h (4 Bft) W 0,00 h 0 W/m 2,7 C -3,8 C 33,3 km/h (5 Bft)
12.01.2017 06:00 4,3 C 89 % 999,1 hPa 0,0 l/m 18,1 km/h (3 Bft) W-SW 0,00 h 0 W/m 2,6 C -3,2 C 31,0 km/h (5 Bft)
12.01.2017 07:00 4,2 C 89 % 999,4 hPa 0,0 l/m 17,2 km/h (3 Bft) SW 0,00 h 0 W/m 2,5 C -2,9 C 28,0 km/h (5 Bft)
12.01.2017 08:00 4,1 C 90 % 999,5 hPa 0,0 l/m 17,8 km/h (3 Bft) W-SW 0,00 h 0 W/m 2,6 C -3,2 C 29,4 km/h (5 Bft)
12.01.2017 09:00 4,4 C 88 % 999,8 hPa 0,2 l/m 19,3 km/h (3 Bft) W-SW 0,00 h 18 W/m 2,7 C -3,6 C 32,5 km/h (5 Bft)
12.01.2017 10:00 4,6 C 88 % 1000,0 hPa 0,0 l/m 18,3 km/h (3 Bft) SW 0,00 h 26 W/m 2,7 C -2,8 C 31,8 km/h (5 Bft)
12.01.2017 11:00 4,6 C 89 % 1000,0 hPa 0,0 l/m 18,7 km/h (3 Bft) SW 0,00 h 45 W/m 3,0 C -3,1 C 31,7 km/h (5 Bft)
12.01.2017 12:00 5,0 C 90 % 999,7 hPa 0,0 l/m 22,3 km/h (4 Bft) SW 0,25 h 110 W/m 3,4 C -4,0 C 36,2 km/h (5 Bft)
12.01.2017 13:00 4,5 C 88 % 999,5 hPa 0,0 l/m 19,5 km/h (3 Bft) SW 0,15 h 84 W/m 2,6 C -3,6 C 33,5 km/h (5 Bft)
12.01.2017 14:00 4,2 C 91 % 999,0 hPa 0,0 l/m 17,6 km/h (3 Bft) SW 0,15 h 58 W/m 2,9 C -3,0 C 29,0 km/h (5 Bft)
12.01.2017 15:00 4,7 C 90 % 998,4 hPa 0,2 l/m 20,2 km/h (4 Bft) W-SW 0,00 h 34 W/m 3,2 C -3,6 C 32,0 km/h (5 Bft)
12.01.2017 16:00 4,5 C 90 % 997,7 hPa 0,0 l/m 19,5 km/h (3 Bft) SW 0,00 h 6 W/m 3,0 C -3,6 C 30,0 km/h (5 Bft)
12.01.2017 17:00 4,4 C 90 % 997,1 hPa 0,0 l/m 16,1 km/h (3 Bft) SW 0,00 h 0 W/m 2,9 C -2,1 C 25,3 km/h (4 Bft)
12.01.2017 18:00 4,0 C 90 % 996,0 hPa 0,0 l/m 11,2 km/h (2 Bft) SW 0,00 h 0 W/m 2,6 C 0,2 C 18,2 km/h (3 Bft)
12.01.2017 19:00 3,3 C 92 % 994,6 hPa 0,0 l/m 7,7 km/h (2 Bft) SW 0,00 h 0 W/m 2,1 C 2,1 C 13,1 km/h (3 Bft)
12.01.2017 20:00 3,2 C 93 % 993,5 hPa 0,0 l/m 9,2 km/h (2 Bft) S 0,00 h 0 W/m 2,2 C 0,8 C 16,4 km/h (3 Bft)
12.01.2017 21:00 2,8 C 94 % 992,2 hPa 0,0 l/m 7,4 km/h (2 Bft) S 0,00 h 0 W/m 2,0 C 1,9 C 13,9 km/h (3 Bft)
12.01.2017 22:00 2,7 C 94 % 991,0 hPa 0,0 l/m 4,3 km/h (1 Bft) SO 0,00 h 0 W/m 1,8 C 2,7 C 8,8 km/h (2 Bft)
12.01.2017 23:00 2,7 C 95 % 989,7 hPa 0,0 l/m 4,8 km/h (1 Bft) SO 0,00 h 0 W/m 2,0 C 2,7 C 9,9 km/h (2 Bft)
13.01.2017 00:00 2,8 C 95 % 988,3 hPa 0,0 l/m 3,7 km/h (1 Bft) O-SO 0,00 h 0 W/m 2,0 C 2,8 C 8,8 km/h (2 Bft)
13.01.2017 01:00 2,4 C 95 % 987,3 hPa 0,0 l/m 3,7 km/h (1 Bft) NO 0,00 h 0 W/m 1,7 C 2,4 C 9,0 km/h (2 Bft)
13.01.2017 02:00 2,1 C 95 % 986,3 hPa 0,0 l/m 4,3 km/h (1 Bft) N-NO 0,00 h 0 W/m 1,4 C 2,1 C 9,1 km/h (2 Bft)
13.01.2017 03:00 1,8 C 95 % 985,6 hPa 0,0 l/m 3,6 km/h (1 Bft) N-NO 0,00 h 0 W/m 1,1 C 1,8 C 6,5 km/h (2 Bft)
13.01.2017 04:00 1,6 C 96 % 985,2 hPa 0,2 l/m 6,2 km/h (2 Bft) N-NO 0,00 h 0 W/m 1,0 C 1,2 C 11,9 km/h (2 Bft)
13.01.2017 05:00 1,7 C 96 % 985,6 hPa 0,0 l/m 6,6 km/h (2 Bft) N-NO 0,00 h 0 W/m 1,1 C 1,2 C 14,0 km/h (3 Bft)
13.01.2017 06:00 1,8 C 96 % 986,3 hPa 0,0 l/m 8,0 km/h (2 Bft) N 0,00 h 0 W/m 1,2 C 0,2 C 16,6 km/h (3 Bft)
13.01.2017 07:00 2,2 C 97 % 987,4 hPa 0,0 l/m 8,7 km/h (2 Bft) N 0,00 h 0 W/m 1,8 C 0,1 C 17,7 km/h (3 Bft)
13.01.2017 08:00 2,3 C 97 % 988,9 hPa 0,0 l/m 8,2 km/h (2 Bft) N-NW 0,00 h 5 W/m 1,9 C 0,4 C 16,7 km/h (3 Bft)
13.01.2017 09:00 2,4 C 97 % 990,4 hPa 0,0 l/m 8,3 km/h (2 Bft) N-NW 0,00 h 18 W/m 2,0 C 0,5 C 15,5 km/h (3 Bft)
13.01.2017 10:00 3,3 C 96 % 991,6 hPa 0,0 l/m 9,2 km/h (2 Bft) NW 0,00 h 41 W/m 2,8 C 0,9 C 17,5 km/h (3 Bft)
13.01.2017 11:00 3,9 C 93 % 992,6 hPa 0,0 l/m 8,2 km/h (2 Bft) NW 0,00 h 62 W/m 2,8 C 2,2 C 17,3 km/h (3 Bft)
13.01.2017 12:00 3,7 C 89 % 993,3 hPa 0,0 l/m 12,6 km/h (2 Bft) W 0,00 h 65 W/m 2,1 C -0,9 C 23,1 km/h (4 Bft)
13.01.2017 13:00 4,0 C 88 % 993,6 hPa 0,0 l/m 6,4 km/h (2 Bft) W-SW 0,75 h 157 W/m 2,1 C 3,6 C 11,4 km/h (2 Bft)
13.01.2017 14:00 5,0 C 79 % 993,7 hPa 0,2 l/m 9,8 km/h (2 Bft) W-SW 0,55 h 120 W/m 1,6 C 2,2 C 17,2 km/h (3 Bft)
13.01.2017 15:00 4,4 C 81 % 993,8 hPa 0,0 l/m 11,7 km/h (2 Bft) SW 0,10 h 28 W/m 1,4 C 0,3 C 19,6 km/h (3 Bft)
13.01.2017 16:00 3,6 C 80 % 993,8 hPa 0,0 l/m 18,1 km/h (3 Bft) W-SW 0,05 h 11 W/m 0,5 C -4,1 C 27,6 km/h (5 Bft)
13.01.2017 17:00 2,8 C 83 % 993,3 hPa 0,0 l/m 15,2 km/h (3 Bft) SW 0,00 h 0 W/m 0,2 C -3,6 C 24,5 km/h (4 Bft)
13.01.2017 18:00 2,4 C 86 % 992,5 hPa 0,0 l/m 17,6 km/h (3 Bft) SW 0,00 h 0 W/m 0,3 C -5,3 C 30,2 km/h (5 Bft)
13.01.2017 19:00 1,9 C 89 % 991,5 hPa 0,0 l/m 20,7 km/h (4 Bft) SW 0,00 h 0 W/m 0,3 C -7,4 C 35,9 km/h (5 Bft)
13.01.2017 20:00 1,1 C 94 % 990,4 hPa 0,0 l/m 16,0 km/h (3 Bft) S-SW 0,00 h 0 W/m 0,2 C -6,1 C 27,0 km/h (5 Bft)
13.01.2017 21:00 1,1 C 95 % 989,9 hPa 0,0 l/m 12,2 km/h (2 Bft) SW 0,00 h 0 W/m 0,4 C -3,8 C 20,4 km/h (4 Bft)
13.01.2017 22:00 1,4 C 96 % 990,3 hPa 0,0 l/m 3,9 km/h (1 Bft) SW 0,00 h 0 W/m 0,9 C 1,3 C 7,9 km/h (2 Bft)
13.01.2017 23:00 3,6 C 97 % 991,0 hPa 0,0 l/m 14,3 km/h (3 Bft) NW 0,00 h 0 W/m 3,1 C -2,2 C 25,5 km/h (4 Bft)
14.01.2017 00:00 3,8 C 96 % 992,5 hPa 0,0 l/m 7,9 km/h (2 Bft) N 0,00 h 0 W/m 3,3 C 2,2 C 15,2 km/h (3 Bft)
14.01.2017 01:00 2,9 C 96 % 994,6 hPa 0,0 l/m 7,6 km/h (2 Bft) NW 0,00 h 0 W/m 2,3 C 1,2 C 14,3 km/h (3 Bft)
14.01.2017 02:00 2,9 C 97 % 996,2 hPa 0,0 l/m 9,9 km/h (2 Bft) N 0,00 h 0 W/m 2,5 C -0,1 C 19,9 km/h (4 Bft)
14.01.2017 03:00 2,8 C 97 % 997,8 hPa 0,0 l/m 10,4 km/h (2 Bft) N 0,00 h 0 W/m 2,4 C -0,5 C 21,3 km/h (4 Bft)
14.01.2017 04:00 2,8 C 97 % 998,9 hPa 0,0 l/m 13,3 km/h (3 Bft) N-NO 0,00 h 0 W/m 2,4 C -2,4 C 26,9 km/h (4 Bft)
14.01.2017 05:00 3,0 C 97 % 999,9 hPa 0,2 l/m 13,0 km/h (3 Bft) N-NW 0,00 h 0 W/m 2,5 C -2,0 C 23,0 km/h (4 Bft)
14.01.2017 06:00 3,6 C 86 % 1000,9 hPa 0,0 l/m 22,6 km/h (4 Bft) NW 0,00 h 0 W/m 1,4 C -5,9 C 35,6 km/h (5 Bft)
14.01.2017 07:00 3,5 C 80 % 1001,7 hPa 0,0 l/m 18,3 km/h (3 Bft) NW 0,00 h 0 W/m 0,5 C -4,2 C 30,7 km/h (5 Bft)
14.01.2017 08:00 3,4 C 79 % 1002,2 hPa 0,0 l/m 12,1 km/h (2 Bft) NW 0,00 h 7 W/m 0,2 C -1,0 C 21,6 km/h (4 Bft)
14.01.2017 09:00 3,3 C 82 % 1002,8 hPa 0,0 l/m 10,9 km/h (2 Bft) W-NW 0,15 h 34 W/m 0,6 C -0,2 C 21,2 km/h (4 Bft)
14.01.2017 10:00 2,9 C 87 % 1003,3 hPa 0,0 l/m 18,5 km/h (3 Bft) W 0,00 h 39 W/m 1,0 C -5,1 C 32,9 km/h (5 Bft)
14.01.2017 11:00 2,7 C 89 % 1003,9 hPa 0,0 l/m 17,1 km/h (3 Bft) W 0,20 h 71 W/m 1,0 C -4,6 C 30,1 km/h (5 Bft)
14.01.2017 12:00 2,9 C 90 % 1003,7 hPa 0,0 l/m 13,8 km/h (3 Bft) W 0,00 h 34 W/m 1,4 C -2,6 C 25,6 km/h (4 Bft)
14.01.2017 13:00 3,8 C 79 % 1003,8 hPa 0,0 l/m 13,7 km/h (3 Bft) W 0,30 h 82 W/m 0,6 C -1,4 C 25,0 km/h (4 Bft)
14.01.2017 14:00 2,6 C 88 % 1004,2 hPa 0,0 l/m 14,6 km/h (3 Bft) W 0,00 h 38 W/m 0,8 C -3,5 C 27,5 km/h (5 Bft)
14.01.2017 15:00 2,9 C 89 % 1004,2 hPa 0,0 l/m 12,5 km/h (2 Bft) W 0,00 h 16 W/m 1,2 C -1,9 C 24,1 km/h (4 Bft)
14.01.2017 16:00 2,8 C 88 % 1004,4 hPa 0,0 l/m 13,3 km/h (3 Bft) NW 0,00 h 5 W/m 1,1 C -2,2 C 26,8 km/h (4 Bft)
14.01.2017 17:00 1,7 C 91 % 1005,2 hPa 0,0 l/m 11,1 km/h (2 Bft) NW 0,00 h 0 W/m 0,4 C -2,1 C 22,1 km/h (4 Bft)
14.01.2017 18:00 2,3 C 92 % 1005,6 hPa 0,0 l/m 9,5 km/h (2 Bft) NW 0,00 h 0 W/m 1,1 C -0,3 C 19,7 km/h (3 Bft)
14.01.2017 19:00 3,1 C 88 % 1005,9 hPa 0,0 l/m 13,1 km/h (3 Bft) N-NW 0,00 h 0 W/m 1,2 C -2,1 C 21,7 km/h (4 Bft)
14.01.2017 20:00 3,1 C 83 % 1006,4 hPa 0,0 l/m 15,4 km/h (3 Bft) NW 0,00 h 0 W/m 0,5 C -3,3 C 26,1 km/h (4 Bft)
14.01.2017 21:00 2,5 C 84 % 1007,2 hPa 0,0 l/m 13,0 km/h (3 Bft) W-NW 0,00 h 0 W/m 0,1 C -2,6 C 25,5 km/h (4 Bft)
14.01.2017 22:00 2,2 C 85 % 1007,6 hPa 0,0 l/m 10,3 km/h (2 Bft) NW 0,00 h 0 W/m -0,1 C -1,0 C 20,3 km/h (4 Bft)
14.01.2017 23:00 3,0 C 83 % 1008,1 hPa 0,0 l/m 15,9 km/h (3 Bft) N-NW 0,00 h 0 W/m 0,3 C -3,7 C 26,4 km/h (4 Bft)
15.01.2017 00:00 3,3 C 81 % 1008,9 hPa 0,0 l/m 13,3 km/h (3 Bft) N 0,00 h 0 W/m 0,3 C -1,8 C 23,8 km/h (4 Bft)
15.01.2017 01:00 2,5 C 84 % 1009,6 hPa 0,2 l/m 11,9 km/h (2 Bft) N-NW 0,00 h 0 W/m -0,0 C -2,0 C 21,8 km/h (4 Bft)
15.01.2017 02:00 2,5 C 83 % 1010,2 hPa 0,0 l/m 8,8 km/h (2 Bft) N 0,00 h 0 W/m -0,2 C 0,3 C 16,6 km/h (3 Bft)
15.01.2017 03:00 2,3 C 85 % 1010,8 hPa 0,0 l/m 8,7 km/h (2 Bft) N-NW 0,00 h 0 W/m -0,0 C 0,2 C 17,6 km/h (3 Bft)
15.01.2017 04:00 2,1 C 84 % 1011,2 hPa 0,0 l/m 8,1 km/h (2 Bft) N 0,00 h 0 W/m -0,3 C 0,4 C 16,1 km/h (3 Bft)
15.01.2017 05:00 1,7 C 84 % 1011,8 hPa 0,0 l/m 10,5 km/h (2 Bft) N-NW 0,00 h 0 W/m -0,8 C -1,7 C 19,8 km/h (3 Bft)
15.01.2017 06:00 1,8 C 84 % 1012,4 hPa 0,0 l/m 10,2 km/h (2 Bft) N 0,00 h 0 W/m -0,7 C -1,6 C 19,2 km/h (3 Bft)
15.01.2017 07:00 1,8 C 86 % 1013,3 hPa 0,0 l/m 9,6 km/h (2 Bft) N 0,00 h 0 W/m -0,3 C -1,1 C 19,5 km/h (3 Bft)
15.01.2017 08:00 1,6 C 88 % 1014,3 hPa 0,0 l/m 6,0 km/h (2 Bft) N 0,00 h 9 W/m -0,2 C 1,3 C 12,4 km/h (2 Bft)
15.01.2017 09:00 1,7 C 88 % 1015,2 hPa 0,0 l/m 6,0 km/h (2 Bft) N-NW 0,00 h 26 W/m -0,1 C 1,4 C 11,4 km/h (2 Bft)
15.01.2017 10:00 2,0 C 86 % 1015,8 hPa 0,0 l/m 5,8 km/h (2 Bft) N 0,00 h 53 W/m -0,1 C 1,8 C 11,9 km/h (2 Bft)
15.01.2017 11:00 2,8 C 82 % 1016,3 hPa 0,0 l/m 7,1 km/h (2 Bft) N-NW 0,35 h 92 W/m 0,0 C 2,0 C 13,5 km/h (3 Bft)
15.01.2017 12:00 3,3 C 79 % 1016,7 hPa 0,0 l/m 6,5 km/h (2 Bft) N-NW 0,85 h 176 W/m 0,0 C 2,9 C 12,1 km/h (2 Bft)
15.01.2017 13:00 3,6 C 77 % 1017,0 hPa 0,0 l/m 4,4 km/h (1 Bft) N-NW 1,00 h 225 W/m -0,1 C 3,6 C 9,3 km/h (2 Bft)
15.01.2017 14:00 3,2 C 77 % 1017,3 hPa 0,0 l/m 4,2 km/h (1 Bft) NW 0,60 h 123 W/m -0,5 C 3,2 C 7,6 km/h (2 Bft)
15.01.2017 15:00 2,7 C 79 % 1017,6 hPa 0,0 l/m 2,1 km/h (1 Bft) W 0,00 h 22 W/m -0,6 C 2,7 C 4,1 km/h (1 Bft)
15.01.2017 16:00 1,3 C 85 % 1018,1 hPa 0,0 l/m 0,9 km/h (0 Bft) W 0,00 h 6 W/m -0,9 C 1,3 C 2,4 km/h (1 Bft)
15.01.2017 17:00 0,1 C 90 % 1018,5 hPa 0,0 l/m 0,8 km/h (0 Bft) W 0,00 h 0 W/m -1,3 C 0,1 C 2,1 km/h (1 Bft)
15.01.2017 18:00 -0,8 C 93 % 1019,0 hPa 0,2 l/m 0,3 km/h (0 Bft) W-NW 0,00 h 0 W/m -1,9 C -0,8 C 1,4 km/h (1 Bft)
15.01.2017 19:00 -1,3 C 94 % 1019,8 hPa 0,2 l/m 0,0 km/h (0 Bft) N 0,00 h 0 W/m -2,2 C -1,3 C 0,2 km/h (0 Bft)
15.01.2017 20:00 -1,7 C 94 % 1020,3 hPa 0,2 l/m 0,3 km/h (0 Bft) N 0,00 h 0 W/m -2,5 C -1,7 C 2,0 km/h (1 Bft)
15.01.2017 21:00 -1,6 C 95 % 1020,8 hPa 0,0 l/m 0,3 km/h (0 Bft) N-NO 0,00 h 0 W/m -2,3 C -1,6 C 1,2 km/h (1 Bft)
15.01.2017 22:00 -1,9 C 95 % 1021,3 hPa 0,0 l/m 0,0 km/h (0 Bft) N 0,00 h 0 W/m -2,6 C -1,9 C 0,0 km/h (0 Bft)
15.01.2017 23:00 -2,0 C 95 % 1021,8 hPa 0,0 l/m 0,6 km/h (0 Bft) N-NO 0,00 h 0 W/m -2,7 C -2,0 C 1,8 km/h (1 Bft)
Min-Datum _ 15.01.17 15.01.17 13.01.17 - 15.01.17 - - - 15.01.17 13.01.17 15.01.17
_ Min-Zeit 23:24 13:45 04:18 - 16:27 - - - 23:24 19:24 16:27
Minimum _ -2,2 C 75 % 985,1 hPa - 0,0 km/h (0 Bft) - - - -2,9 C -8,9 C 0,0 km/h (0 Bft)
Max-Datum _ 11.01.17 10.01.17 09.01.17 11.01.17 11.01.17 - 11.01.17 14.01.17 11.01.17 13.01.17 12.01.17
_ Max-Zeit 13:36 20:18 00:00 10:00 11:18 - 13:12 11:12 11:45 14:00 01:57
Maximum _ 6,9 C 98 % 1028,6 hPa 1,4 l/m 34,3 km/h
SW (5 Bft)
- 0,05 h 290 W/m 5,8 C 4,7 C 62,8 km/h
W (7 Bft)
Durchschnitt _ 3,1 C 91 % 1004,4 hPa #13,2 l/m 11,6 km/h (2 Bft) S #6:21 h 48 W/m 1,8 C -0,8 C 20,7 km/h (4 Bft)
2017 Cux-Wetter.de -Die Nutzung der Wetterdaten nur mit ausdrcklicher Genehmigung